createdAt,value
2019-02-02T00:00:03.131Z,991.8
2019-02-02T00:01:02.979Z,991.9
2019-02-02T00:02:03.384Z,991.9
2019-02-02T00:03:03.172Z,992
2019-02-02T00:04:03.037Z,991.9
2019-02-02T00:05:04.000Z,992
2019-02-02T00:06:03.236Z,992.2
2019-02-02T00:07:03.039Z,992
2019-02-02T00:08:03.847Z,992.2
2019-02-02T00:09:03.330Z,992
2019-02-02T00:10:03.840Z,992.3
2019-02-02T00:11:03.861Z,992.2
2019-02-02T00:12:03.707Z,992.2
2019-02-02T00:13:03.249Z,992.2
2019-02-02T00:14:03.615Z,992.2
2019-02-02T00:15:03.841Z,992.2
2019-02-02T00:16:03.178Z,992.2
2019-02-02T00:17:03.902Z,992.2
2019-02-02T00:18:02.953Z,992.2
2019-02-02T00:19:03.996Z,992.2
2019-02-02T00:20:02.899Z,992.3
2019-02-02T00:21:03.201Z,992.2
2019-02-02T00:22:03.519Z,992.2
2019-02-02T00:23:03.921Z,992.2
2019-02-02T00:24:03.049Z,992.3
2019-02-02T00:25:04.009Z,992.3
2019-02-02T00:26:03.444Z,992.3
2019-02-02T00:27:03.968Z,992.2
2019-02-02T00:28:03.711Z,992.2
2019-02-02T00:29:03.032Z,992.2
2019-02-02T00:30:03.828Z,992.3
2019-02-02T00:31:02.948Z,992.3
2019-02-02T00:32:03.493Z,992.3
2019-02-02T00:33:03.019Z,992.2
2019-02-02T00:34:03.149Z,992.5
2019-02-02T00:35:03.191Z,992.4
2019-02-02T00:36:03.370Z,992.5
2019-02-02T00:37:03.161Z,992.5
2019-02-02T00:38:03.685Z,992.4
2019-02-02T00:39:03.623Z,992.5
2019-02-02T00:40:03.996Z,992.4
2019-02-02T00:41:03.151Z,992.5
2019-02-02T00:42:03.467Z,992.4
2019-02-02T00:43:03.788Z,992.6
2019-02-02T00:44:03.622Z,992.6
2019-02-02T00:45:03.092Z,992.5
2019-02-02T00:46:03.809Z,992.5
2019-02-02T00:47:03.312Z,992.6
2019-02-02T00:48:03.284Z,992.6
2019-02-02T00:49:03.047Z,992.6
2019-02-02T00:50:03.845Z,992.7
2019-02-02T00:51:03.330Z,992.6
2019-02-02T00:52:03.373Z,992.6
2019-02-02T00:53:03.687Z,992.7
2019-02-02T00:54:03.837Z,992.6
2019-02-02T00:55:03.993Z,992.6
2019-02-02T00:56:03.118Z,992.7
2019-02-02T00:57:03.419Z,992.5
2019-02-02T00:58:03.382Z,992.5
2019-02-02T00:59:04.188Z,992.6
2019-02-02T01:00:03.595Z,992.6
2019-02-02T01:01:03.447Z,992.6
2019-02-02T01:02:03.606Z,992.7
2019-02-02T01:03:03.644Z,992.6
2019-02-02T01:04:03.375Z,992.6
2019-02-02T01:05:03.086Z,992.6
2019-02-02T01:06:05.677Z,992.5
2019-02-02T01:07:03.711Z,992.5
2019-02-02T01:08:04.010Z,992.5
2019-02-02T01:09:03.282Z,992.5
2019-02-02T01:10:03.972Z,992.6
2019-02-02T01:11:03.809Z,992.7
2019-02-02T01:12:03.286Z,992.6
2019-02-02T01:13:03.712Z,992.6
2019-02-02T01:14:03.482Z,992.6
2019-02-02T01:15:03.192Z,992.7
2019-02-02T01:16:03.099Z,992.8
2019-02-02T01:17:03.176Z,992.6
2019-02-02T01:18:03.320Z,992.7
2019-02-02T01:19:03.832Z,992.6
2019-02-02T01:20:03.383Z,992.5
2019-02-02T01:21:04.034Z,992.6
2019-02-02T01:22:03.566Z,992.6
2019-02-02T01:23:03.449Z,992.7
2019-02-02T01:24:02.868Z,992.7
2019-02-02T01:25:03.169Z,992.7
2019-02-02T01:26:03.100Z,992.6
2019-02-02T01:27:03.238Z,992.6
2019-02-02T01:28:06.111Z,992.6
2019-02-02T01:29:03.479Z,992.6
2019-02-02T01:30:03.647Z,992.5
2019-02-02T01:31:03.567Z,992.6
2019-02-02T01:32:03.124Z,992.7
2019-02-02T01:33:03.861Z,992.7
2019-02-02T01:34:03.894Z,992.7
2019-02-02T01:35:03.479Z,992.7
2019-02-02T01:36:03.126Z,992.7
2019-02-02T01:37:03.416Z,992.7
2019-02-02T01:38:03.465Z,992.8
2019-02-02T01:39:03.106Z,992.8
2019-02-02T01:40:03.885Z,992.8
2019-02-02T01:41:03.366Z,992.7
2019-02-02T01:42:03.316Z,992.8
2019-02-02T01:43:04.218Z,992.8
2019-02-02T01:44:03.105Z,992.7
2019-02-02T01:45:03.221Z,992.7
2019-02-02T01:46:03.143Z,992.6
2019-02-02T01:47:03.153Z,992.6
2019-02-02T01:48:04.119Z,992.6
2019-02-02T01:49:03.671Z,992.6
2019-02-02T01:50:03.643Z,992.6
2019-02-02T01:51:03.350Z,992.6
2019-02-02T01:52:03.216Z,992.6
2019-02-02T01:53:03.976Z,992.5
2019-02-02T01:54:03.639Z,992.5
2019-02-02T01:55:03.756Z,992.6
2019-02-02T01:56:03.438Z,992.6
2019-02-02T01:57:03.310Z,992.6
2019-02-02T01:58:02.978Z,992.7
2019-02-02T01:59:03.567Z,992.6
2019-02-02T02:00:03.135Z,992.6
2019-02-02T02:01:03.351Z,992.6
2019-02-02T02:02:03.671Z,992.6
2019-02-02T02:03:03.372Z,992.6
2019-02-02T02:04:03.993Z,992.6
2019-02-02T02:05:03.408Z,992.5
2019-02-02T02:06:03.098Z,992.6
2019-02-02T02:07:03.089Z,992.6
2019-02-02T02:08:02.951Z,992.5
2019-02-02T02:09:03.429Z,992.4
2019-02-02T02:10:03.752Z,992.5
2019-02-02T02:11:03.597Z,992.5
2019-02-02T02:12:03.107Z,992.5
2019-02-02T02:13:03.047Z,992.4
2019-02-02T02:14:04.290Z,992.3
2019-02-02T02:15:03.944Z,992.4
2019-02-02T02:16:03.194Z,992.5
2019-02-02T02:17:03.280Z,992.4
2019-02-02T02:18:03.331Z,992.4
2019-02-02T02:19:03.291Z,992.6
2019-02-02T02:20:03.320Z,992.6
2019-02-02T02:21:03.574Z,992.5
2019-02-02T02:22:03.034Z,992.7
2019-02-02T02:23:03.350Z,992.6
2019-02-02T02:24:04.030Z,992.6
2019-02-02T02:25:03.591Z,992.6
2019-02-02T02:26:03.142Z,992.5
2019-02-02T02:27:03.416Z,992.6
2019-02-02T02:28:03.338Z,992.6
2019-02-02T02:29:03.215Z,992.6
2019-02-02T02:30:03.144Z,992.4
2019-02-02T02:31:03.097Z,992.6
2019-02-02T02:32:02.988Z,992.6
2019-02-02T02:33:03.262Z,992.6
2019-02-02T02:34:03.679Z,992.6
2019-02-02T02:35:03.408Z,992.6
2019-02-02T02:36:03.414Z,992.6
2019-02-02T02:37:03.161Z,992.5
2019-02-02T02:38:03.173Z,992.5
2019-02-02T02:39:03.179Z,992.5
2019-02-02T02:40:03.712Z,992.5
2019-02-02T02:41:03.175Z,992.6
2019-02-02T02:42:03.283Z,992.6
2019-02-02T02:43:03.873Z,992.5
2019-02-02T02:44:03.220Z,992.6
2019-02-02T02:45:03.781Z,992.7
2019-02-02T02:46:03.372Z,992.6
2019-02-02T02:47:03.113Z,992.4
2019-02-02T02:48:03.178Z,992.5
2019-02-02T02:49:03.793Z,992.4
2019-02-02T02:50:03.860Z,992.4
2019-02-02T02:51:03.722Z,992.4
2019-02-02T02:52:04.091Z,992.3
2019-02-02T02:53:03.254Z,992.4
2019-02-02T02:54:03.590Z,992.4
2019-02-02T02:55:03.876Z,992.4
2019-02-02T02:56:03.433Z,992.6
2019-02-02T02:57:03.744Z,992.5
2019-02-02T02:58:03.870Z,992.4
2019-02-02T02:59:03.658Z,992.4
2019-02-02T03:00:03.679Z,992.5
2019-02-02T03:01:03.991Z,992.5
2019-02-02T03:02:03.263Z,992.5
2019-02-02T03:03:03.756Z,992.5
2019-02-02T03:04:04.054Z,992.4
2019-02-02T03:05:03.705Z,992.4
2019-02-02T03:06:03.101Z,992.3
2019-02-02T03:07:02.988Z,992.4
2019-02-02T03:08:03.778Z,992.5
2019-02-02T03:09:03.259Z,992.6
2019-02-02T03:10:03.066Z,992.5
2019-02-02T03:11:03.127Z,992.7
2019-02-02T03:12:03.222Z,992.6
2019-02-02T03:13:03.867Z,992.5
2019-02-02T03:14:03.138Z,992.6
2019-02-02T03:15:03.696Z,992.7
2019-02-02T03:16:03.432Z,992.6
2019-02-02T03:17:03.696Z,992.9
2019-02-02T03:18:03.359Z,992.8
2019-02-02T03:19:03.390Z,992.9
2019-02-02T03:20:03.747Z,992.9
2019-02-02T03:21:03.445Z,992.9
2019-02-02T03:22:03.481Z,992.9
2019-02-02T03:23:03.052Z,993
2019-02-02T03:24:03.386Z,993
2019-02-02T03:25:03.881Z,993
2019-02-02T03:26:03.865Z,992.9
2019-02-02T03:27:03.359Z,992.9
2019-02-02T03:28:03.007Z,992.9
2019-02-02T03:29:03.345Z,993
2019-02-02T03:30:04.052Z,993
2019-02-02T03:31:03.103Z,993.1
2019-02-02T03:32:03.713Z,993.1
2019-02-02T03:33:03.126Z,993.1
2019-02-02T03:34:03.727Z,993.2
2019-02-02T03:35:03.607Z,993
2019-02-02T03:36:02.903Z,993.1
2019-02-02T03:37:03.788Z,993
2019-02-02T03:38:03.721Z,993
2019-02-02T03:39:03.649Z,993.1
2019-02-02T03:40:03.543Z,993.1
2019-02-02T03:41:03.479Z,993.1
2019-02-02T03:42:03.914Z,993
2019-02-02T03:43:03.210Z,993.1
2019-02-02T03:44:03.693Z,993
2019-02-02T03:45:03.501Z,993
2019-02-02T03:46:03.172Z,993.1
2019-02-02T03:47:03.207Z,993
2019-02-02T03:48:03.831Z,993.1
2019-02-02T03:49:02.936Z,993.2
2019-02-02T03:50:03.339Z,993.2
2019-02-02T03:51:02.934Z,993.3
2019-02-02T03:52:04.057Z,993.2
2019-02-02T03:53:03.054Z,993.3
2019-02-02T03:54:09.612Z,993.1
2019-02-02T03:55:03.995Z,993.4
2019-02-02T03:56:03.786Z,993.3
2019-02-02T03:57:03.288Z,993.3
2019-02-02T03:58:03.547Z,993.2
2019-02-02T03:59:07.551Z,993.2
2019-02-02T04:00:03.741Z,993.1
2019-02-02T04:01:03.912Z,993.2
2019-02-02T04:02:03.870Z,993.1
2019-02-02T04:03:02.978Z,993.2
2019-02-02T04:04:03.082Z,993.3
2019-02-02T04:05:03.601Z,993.2
2019-02-02T04:06:03.773Z,993.2
2019-02-02T04:07:03.298Z,993.2
2019-02-02T04:08:04.284Z,993.1
2019-02-02T04:09:03.662Z,993.1
2019-02-02T04:10:03.377Z,993.2
2019-02-02T04:11:02.765Z,993.2
2019-02-02T04:12:03.020Z,993.1
2019-02-02T04:13:03.656Z,993.1
2019-02-02T04:14:03.862Z,993.1
2019-02-02T04:15:03.264Z,993.1
2019-02-02T04:16:03.767Z,993.1
2019-02-02T04:17:03.479Z,993.1
2019-02-02T04:18:03.127Z,993.2
2019-02-02T04:19:03.384Z,993.3
2019-02-02T04:20:03.770Z,993.3
2019-02-02T04:21:03.280Z,993.3
2019-02-02T04:22:03.183Z,993.3
2019-02-02T04:23:03.106Z,993.1
2019-02-02T04:24:03.472Z,993.2
2019-02-02T04:25:03.051Z,993.2
2019-02-02T04:26:03.256Z,993.2
2019-02-02T04:27:03.083Z,993.1
2019-02-02T04:28:03.064Z,993.1
2019-02-02T04:29:03.753Z,993.1
2019-02-02T04:30:03.346Z,993.2
2019-02-02T04:31:03.884Z,993.2
2019-02-02T04:32:03.406Z,993.2
2019-02-02T04:33:03.637Z,993.3
2019-02-02T04:34:03.513Z,993.2
2019-02-02T04:35:03.509Z,993.2
2019-02-02T04:36:03.491Z,993.2
2019-02-02T04:37:02.887Z,993.2
2019-02-02T04:38:03.675Z,993.3
2019-02-02T04:39:03.297Z,993.3
2019-02-02T04:40:03.738Z,993.3
2019-02-02T04:41:03.479Z,993.3
2019-02-02T04:42:03.668Z,993.4
2019-02-02T04:43:03.035Z,993.4
2019-02-02T04:44:03.283Z,993.4
2019-02-02T04:45:03.981Z,993.4
2019-02-02T04:46:03.001Z,993.4
2019-02-02T04:47:03.586Z,993.4
2019-02-02T04:48:03.880Z,993.4
2019-02-02T04:49:02.991Z,993.3
2019-02-02T04:50:04.020Z,993.2
2019-02-02T04:51:03.703Z,993.3
2019-02-02T04:52:03.564Z,993.3
2019-02-02T04:53:03.946Z,993.3
2019-02-02T04:54:03.571Z,993.3
2019-02-02T04:55:03.914Z,993.3
2019-02-02T04:56:03.452Z,993.2
2019-02-02T04:57:02.844Z,993.2
2019-02-02T04:58:03.156Z,993.2
2019-02-02T04:59:03.624Z,993.3
2019-02-02T05:00:03.804Z,993.2
2019-02-02T05:01:03.563Z,993.3
2019-02-02T05:02:03.557Z,993.2
2019-02-02T05:03:03.147Z,993.1
2019-02-02T05:04:03.473Z,993.1
2019-02-02T05:05:03.774Z,993.2
2019-02-02T05:06:03.822Z,993.1
2019-02-02T05:07:03.598Z,993.2
2019-02-02T05:08:03.676Z,993.2
2019-02-02T05:09:03.426Z,993.3
2019-02-02T05:10:03.955Z,993.2
2019-02-02T05:11:03.030Z,993.2
2019-02-02T05:12:03.893Z,993.2
2019-02-02T05:13:03.026Z,993.3
2019-02-02T05:14:03.630Z,993.4
2019-02-02T05:15:03.083Z,993.3
2019-02-02T05:16:03.240Z,993.3
2019-02-02T05:17:02.939Z,993.3
2019-02-02T05:18:03.720Z,993.4
2019-02-02T05:19:03.821Z,993.4
2019-02-02T05:20:03.168Z,993.5
2019-02-02T05:21:03.718Z,993.5
2019-02-02T05:22:03.227Z,993.5
2019-02-02T05:23:03.338Z,993.3
2019-02-02T05:24:03.240Z,993.3
2019-02-02T05:25:03.712Z,993.3
2019-02-02T05:26:03.118Z,993.3
2019-02-02T05:27:03.621Z,993.3
2019-02-02T05:28:03.760Z,993.4
2019-02-02T05:29:03.907Z,993.6
2019-02-02T05:30:03.230Z,993.6
2019-02-02T05:31:03.647Z,993.6
2019-02-02T05:32:03.706Z,993.6
2019-02-02T05:33:03.822Z,993.6
2019-02-02T05:34:04.010Z,993.5
2019-02-02T05:35:03.383Z,993.6
2019-02-02T05:36:03.847Z,993.7
2019-02-02T05:37:03.573Z,993.6
2019-02-02T05:38:03.123Z,993.7
2019-02-02T05:39:03.251Z,993.8
2019-02-02T05:40:03.212Z,993.6
2019-02-02T05:41:03.340Z,993.8
2019-02-02T05:42:03.687Z,993.8
2019-02-02T05:43:03.424Z,993.9
2019-02-02T05:44:03.707Z,993.9
2019-02-02T05:45:03.900Z,993.8
2019-02-02T05:46:04.092Z,993.8
2019-02-02T05:47:03.375Z,993.8
2019-02-02T05:48:03.081Z,993.8
2019-02-02T05:49:03.373Z,993.8
2019-02-02T05:50:03.410Z,993.9
2019-02-02T05:51:03.615Z,994
2019-02-02T05:52:03.492Z,994
2019-02-02T05:53:03.248Z,994
2019-02-02T05:54:03.658Z,994
2019-02-02T05:55:03.708Z,994
2019-02-02T05:56:03.610Z,993.9
2019-02-02T05:57:03.049Z,993.9
2019-02-02T05:58:03.425Z,993.9
2019-02-02T05:59:03.708Z,993.9
2019-02-02T06:00:03.519Z,993.8
2019-02-02T06:01:02.964Z,993.8
2019-02-02T06:02:03.262Z,993.9
2019-02-02T06:03:03.500Z,993.9
2019-02-02T06:04:03.107Z,993.9
2019-02-02T06:05:03.654Z,994
2019-02-02T06:06:03.189Z,994
2019-02-02T06:07:03.268Z,993.9
2019-02-02T06:08:03.299Z,994
2019-02-02T06:09:03.264Z,993.9
2019-02-02T06:10:03.665Z,993.9
2019-02-02T06:11:03.194Z,993.9
2019-02-02T06:12:04.086Z,994
2019-02-02T06:13:03.830Z,994
2019-02-02T06:14:03.578Z,994.1
2019-02-02T06:15:03.481Z,994.1
2019-02-02T06:16:03.195Z,994.2
2019-02-02T06:17:03.241Z,994.2
2019-02-02T06:18:03.087Z,994
2019-02-02T06:19:03.043Z,994.1
2019-02-02T06:20:03.566Z,994.2
2019-02-02T06:21:03.773Z,994.3
2019-02-02T06:22:03.097Z,994.4
2019-02-02T06:23:03.967Z,994.3
2019-02-02T06:24:03.593Z,994.3
2019-02-02T06:25:03.392Z,994.3
2019-02-02T06:26:03.636Z,994.3
2019-02-02T06:27:03.888Z,994.4
2019-02-02T06:28:03.696Z,994.4
2019-02-02T06:29:02.981Z,994.5
2019-02-02T06:30:05.457Z,994.4
2019-02-02T06:31:03.556Z,994.4
2019-02-02T06:32:12.639Z,994.4
2019-02-02T06:33:03.447Z,994.5
2019-02-02T06:34:03.860Z,994.5
2019-02-02T06:35:03.529Z,994.7
2019-02-02T06:36:04.075Z,994.5
2019-02-02T06:37:03.378Z,994.7
2019-02-02T06:38:03.642Z,994.5
2019-02-02T06:39:03.247Z,994.5
2019-02-02T06:40:03.747Z,994.7
2019-02-02T06:41:03.454Z,994.7
2019-02-02T06:42:03.607Z,994.8
2019-02-02T06:43:03.156Z,994.8
2019-02-02T06:44:02.816Z,994.8
2019-02-02T06:45:03.739Z,994.8
2019-02-02T06:46:03.585Z,994.8
2019-02-02T06:47:03.906Z,994.8
2019-02-02T06:48:02.792Z,994.7
2019-02-02T06:49:04.022Z,994.8
2019-02-02T06:50:03.877Z,994.8
2019-02-02T06:51:03.895Z,994.8
2019-02-02T06:52:03.640Z,994.9
2019-02-02T06:53:03.945Z,994.8
2019-02-02T06:54:03.534Z,994.9
2019-02-02T06:55:03.306Z,994.9
2019-02-02T06:56:03.009Z,994.9
2019-02-02T06:57:03.841Z,994.8
2019-02-02T06:58:03.293Z,994.9
2019-02-02T06:59:03.459Z,994.9
2019-02-02T07:00:03.712Z,994.9
2019-02-02T07:01:03.642Z,994.9
2019-02-02T07:02:03.477Z,994.9
2019-02-02T07:03:03.885Z,994.9
2019-02-02T07:04:03.414Z,995
2019-02-02T07:05:03.742Z,995
2019-02-02T07:06:03.232Z,995
2019-02-02T07:07:03.636Z,995.1
2019-02-02T07:08:02.847Z,995.1
2019-02-02T07:09:03.066Z,995.1
2019-02-02T07:10:03.317Z,995
2019-02-02T07:11:03.478Z,995.1
2019-02-02T07:12:03.925Z,995.2
2019-02-02T07:13:03.656Z,995.1
2019-02-02T07:14:03.490Z,995.1
2019-02-02T07:15:03.832Z,995.1
2019-02-02T07:16:03.117Z,994.9
2019-02-02T07:17:03.769Z,995
2019-02-02T07:18:03.768Z,995.1
2019-02-02T07:19:03.702Z,995.1
2019-02-02T07:20:03.431Z,995
2019-02-02T07:21:02.925Z,995.1
2019-02-02T07:22:03.110Z,995.1
2019-02-02T07:23:03.214Z,995
2019-02-02T07:24:03.890Z,995.1
2019-02-02T07:25:03.495Z,995.2
2019-02-02T07:26:03.787Z,995.1
2019-02-02T07:27:03.223Z,995.1
2019-02-02T07:28:03.015Z,995.3
2019-02-02T07:29:02.966Z,995.1
2019-02-02T07:30:05.640Z,995.3
2019-02-02T07:31:03.318Z,995.3
2019-02-02T07:32:03.799Z,995.3
2019-02-02T07:33:03.043Z,995.4
2019-02-02T07:34:03.229Z,995.4
2019-02-02T07:35:03.692Z,995.5
2019-02-02T07:36:03.722Z,995.4
2019-02-02T07:37:03.118Z,995.4
2019-02-02T07:38:03.221Z,995.6
2019-02-02T07:39:03.705Z,995.4
2019-02-02T07:40:02.995Z,995.4
2019-02-02T07:41:03.757Z,995.5
2019-02-02T07:42:03.335Z,995.5
2019-02-02T07:43:03.709Z,995.5
2019-02-02T07:44:03.173Z,995.5
2019-02-02T07:45:03.816Z,995.4
2019-02-02T07:46:15.615Z,995.4
2019-02-02T07:47:03.742Z,995.4
2019-02-02T07:48:03.592Z,995.5
2019-02-02T07:49:03.438Z,995.4
2019-02-02T07:50:03.285Z,995.4
2019-02-02T07:51:03.545Z,995.4
2019-02-02T07:52:03.511Z,995.4
2019-02-02T07:53:03.372Z,995.5
2019-02-02T07:54:03.645Z,995.3
2019-02-02T07:55:03.447Z,995.4
2019-02-02T07:56:03.299Z,995.4
2019-02-02T07:57:03.872Z,995.3
2019-02-02T07:58:03.400Z,995.3
2019-02-02T07:59:03.874Z,995.3
2019-02-02T08:00:03.522Z,995.4
2019-02-02T08:01:03.048Z,995.4
2019-02-02T08:02:03.131Z,995.3
2019-02-02T08:03:03.748Z,995.3
2019-02-02T08:04:03.140Z,995.4
2019-02-02T08:05:03.300Z,995.4
2019-02-02T08:06:03.492Z,995.3
2019-02-02T08:07:03.140Z,995.2
2019-02-02T08:08:03.118Z,995.4
2019-02-02T08:09:03.420Z,995.4
2019-02-02T08:10:03.129Z,995.2
2019-02-02T08:11:03.902Z,995.3
2019-02-02T08:12:03.785Z,995.3
2019-02-02T08:13:02.860Z,995.2
2019-02-02T08:14:03.464Z,995.3
2019-02-02T08:15:03.223Z,995.5
2019-02-02T08:16:03.400Z,995.4
2019-02-02T08:17:03.705Z,995.5
2019-02-02T08:18:03.194Z,995.4
2019-02-02T08:19:03.067Z,995.5
2019-02-02T08:20:04.005Z,995.4
2019-02-02T08:21:03.240Z,995.3
2019-02-02T08:22:03.825Z,995.5
2019-02-02T08:23:03.702Z,995.3
2019-02-02T08:24:03.637Z,995.3
2019-02-02T08:25:03.976Z,995.3
2019-02-02T08:26:03.654Z,995.2
2019-02-02T08:27:03.073Z,995.2
2019-02-02T08:28:03.479Z,995.1
2019-02-02T08:29:03.076Z,995
2019-02-02T08:30:03.903Z,995
2019-02-02T08:31:02.934Z,994.9
2019-02-02T08:32:03.755Z,995.1
2019-02-02T08:33:03.680Z,995.1
2019-02-02T08:34:03.836Z,994.9
2019-02-02T08:35:03.251Z,995
2019-02-02T08:36:04.609Z,995
2019-02-02T08:37:03.507Z,995.1
2019-02-02T08:38:03.913Z,995.2
2019-02-02T08:39:03.328Z,995.2
2019-02-02T08:40:03.891Z,995.2
2019-02-02T08:41:03.456Z,995.2
2019-02-02T08:42:03.580Z,995.3
2019-02-02T08:43:03.340Z,995.3
2019-02-02T08:44:03.506Z,995.5
2019-02-02T08:45:03.942Z,995.6
2019-02-02T08:46:03.382Z,995.6
2019-02-02T08:47:02.999Z,995.6
2019-02-02T08:48:03.415Z,995.7
2019-02-02T08:49:03.087Z,995.8
2019-02-02T08:50:03.293Z,995.8
2019-02-02T08:51:03.516Z,995.9
2019-02-02T08:52:03.411Z,995.9
2019-02-02T08:53:03.350Z,996.1
2019-02-02T08:54:04.219Z,996.2
2019-02-02T08:55:03.547Z,996.2
2019-02-02T08:56:04.071Z,996.1
2019-02-02T08:57:04.229Z,996.2
2019-02-02T08:58:02.146Z,996.2
2019-02-02T08:59:03.398Z,996.1
2019-02-02T09:00:02.940Z,996.2
2019-02-02T09:01:04.894Z,996.2
2019-02-02T09:02:03.590Z,996.2
2019-02-02T09:03:03.766Z,996.2
2019-02-02T09:04:04.155Z,996.3
2019-02-02T09:05:04.300Z,996.2
2019-02-02T09:06:03.730Z,996.3
2019-02-02T09:07:03.521Z,996.3
2019-02-02T09:08:03.680Z,996.4
2019-02-02T09:09:03.884Z,996.3
2019-02-02T09:10:03.631Z,996.3
2019-02-02T09:11:03.344Z,996.2
2019-02-02T09:12:03.204Z,996.4
2019-02-02T09:13:03.520Z,996.4
2019-02-02T09:14:03.265Z,996.4
2019-02-02T09:15:03.381Z,996.4
2019-02-02T09:16:03.876Z,996.4
2019-02-02T09:17:03.054Z,996.5
2019-02-02T09:18:03.518Z,996.4
2019-02-02T09:19:03.751Z,996.4
2019-02-02T09:20:03.274Z,996.5
2019-02-02T09:21:03.590Z,996.5
2019-02-02T09:22:03.368Z,996.6
2019-02-02T09:23:07.157Z,996.5
2019-02-02T09:24:03.102Z,996.5
2019-02-02T09:25:03.657Z,996.6
2019-02-02T09:26:03.226Z,996.6
2019-02-02T09:27:03.057Z,996.6
2019-02-02T09:28:03.537Z,996.7
2019-02-02T09:29:03.738Z,996.7
2019-02-02T09:30:02.992Z,996.8
2019-02-02T09:31:16.067Z,996.7
2019-02-02T09:32:03.589Z,996.6
2019-02-02T09:33:03.527Z,996.5
2019-02-02T09:34:03.101Z,996.6
2019-02-02T09:35:03.355Z,996.6
2019-02-02T09:36:03.620Z,996.7
2019-02-02T09:37:02.988Z,996.7
2019-02-02T09:38:03.637Z,996.7
2019-02-02T09:39:03.383Z,996.7
2019-02-02T09:40:03.830Z,996.7
2019-02-02T09:41:03.112Z,996.8
2019-02-02T09:42:03.338Z,996.8
2019-02-02T09:43:03.089Z,996.8
2019-02-02T09:44:03.785Z,996.9
2019-02-02T09:45:03.433Z,996.9
2019-02-02T09:46:05.129Z,996.9
2019-02-02T09:47:03.502Z,996.9
2019-02-02T09:48:02.961Z,997
2019-02-02T09:49:03.183Z,996.9
2019-02-02T09:50:03.327Z,997
2019-02-02T09:51:02.973Z,997
2019-02-02T09:52:03.714Z,997
2019-02-02T09:53:02.973Z,997
2019-02-02T09:54:02.991Z,997
2019-02-02T09:55:03.962Z,997
2019-02-02T09:56:03.742Z,996.9
2019-02-02T09:57:03.970Z,996.9
2019-02-02T09:58:03.625Z,996.9
2019-02-02T09:59:03.616Z,996.9
2019-02-02T10:00:03.837Z,996.7
2019-02-02T10:01:03.043Z,996.7
2019-02-02T10:02:03.712Z,996.6
2019-02-02T10:03:03.081Z,996.6
2019-02-02T10:04:03.326Z,996.5
2019-02-02T10:05:03.467Z,996.6
2019-02-02T10:06:03.815Z,996.5
2019-02-02T10:07:03.142Z,996.7
2019-02-02T10:08:03.004Z,996.5
2019-02-02T10:09:03.410Z,996.5
2019-02-02T10:10:03.853Z,996.6
2019-02-02T10:11:02.970Z,996.6
2019-02-02T10:12:03.608Z,996.5
2019-02-02T10:13:03.233Z,996.5
2019-02-02T10:14:03.044Z,996.6
2019-02-02T10:15:03.854Z,996.7
2019-02-02T10:16:03.118Z,996.7
2019-02-02T10:17:02.832Z,996.7
2019-02-02T10:18:03.365Z,996.8
2019-02-02T10:19:03.438Z,996.8
2019-02-02T10:20:03.837Z,996.8
2019-02-02T10:21:04.797Z,996.8
2019-02-02T10:22:03.317Z,996.9
2019-02-02T10:23:03.951Z,997
2019-02-02T10:24:03.594Z,996.9
2019-02-02T10:25:03.479Z,996.8
2019-02-02T10:26:03.819Z,996.9
2019-02-02T10:27:03.369Z,996.8
2019-02-02T10:28:03.431Z,996.7
2019-02-02T10:29:03.060Z,996.6
2019-02-02T10:30:02.998Z,996.6
2019-02-02T10:31:03.831Z,996.7
2019-02-02T10:32:03.488Z,996.8
2019-02-02T10:33:03.959Z,996.8
2019-02-02T10:34:03.581Z,996.9
2019-02-02T10:35:03.511Z,996.9
2019-02-02T10:36:03.250Z,997.1
2019-02-02T10:37:02.940Z,996.9
2019-02-02T10:38:03.886Z,996.9
2019-02-02T10:39:03.220Z,997.1
2019-02-02T10:40:03.648Z,996.9
2019-02-02T10:41:03.195Z,996.9
2019-02-02T10:42:03.284Z,996.9
2019-02-02T10:43:03.772Z,996.9
2019-02-02T10:44:03.719Z,996.9
2019-02-02T10:45:03.200Z,996.9
2019-02-02T10:46:02.943Z,997.1
2019-02-02T10:47:03.677Z,996.9
2019-02-02T10:48:03.500Z,997.2
2019-02-02T10:49:03.491Z,997.1
2019-02-02T10:50:03.621Z,997.1
2019-02-02T10:51:03.724Z,997.1
2019-02-02T10:52:02.399Z,997.1
2019-02-02T10:53:03.555Z,997.1
2019-02-02T10:54:06.104Z,997.2
2019-02-02T10:55:03.400Z,997
2019-02-02T10:56:03.721Z,997.1
2019-02-02T10:57:03.211Z,997.2
2019-02-02T10:58:03.192Z,997.2
2019-02-02T10:59:03.498Z,997.2
2019-02-02T11:00:03.081Z,997.3
2019-02-02T11:01:02.945Z,997.3
2019-02-02T11:02:03.469Z,997.4
2019-02-02T11:03:03.052Z,997.3
2019-02-02T11:04:04.280Z,997.2
2019-02-02T11:05:04.565Z,997.3
2019-02-02T11:06:03.540Z,997.2
2019-02-02T11:07:03.998Z,997.3
2019-02-02T11:08:04.700Z,997.3
2019-02-02T11:09:03.821Z,997.3
2019-02-02T11:10:04.084Z,997.3
2019-02-02T11:11:03.835Z,997.4
2019-02-02T11:12:03.935Z,997.3
2019-02-02T11:13:03.744Z,997.3
2019-02-02T11:14:03.805Z,997.3
2019-02-02T11:15:03.803Z,997.3
2019-02-02T11:16:04.334Z,997.3
2019-02-02T11:17:04.258Z,997.4
2019-02-02T11:18:03.893Z,997.4
2019-02-02T11:19:03.599Z,997.4
2019-02-02T11:20:04.595Z,997.4
2019-02-02T11:21:04.128Z,997.3
2019-02-02T11:22:04.183Z,997.5
2019-02-02T11:23:04.353Z,997.4
2019-02-02T11:24:04.139Z,997.5
2019-02-02T11:25:04.504Z,997.4
2019-02-02T11:26:04.041Z,997.4
2019-02-02T11:27:03.590Z,997.4
2019-02-02T11:28:04.490Z,997.3
2019-02-02T11:29:03.711Z,997.3
2019-02-02T11:30:03.389Z,997.3
2019-02-02T11:31:03.783Z,997.2
2019-02-02T11:32:03.753Z,997.2
2019-02-02T11:33:03.163Z,997.2
2019-02-02T11:34:03.262Z,997.1
2019-02-02T11:35:03.793Z,997.1
2019-02-02T11:36:03.100Z,997.1
2019-02-02T11:37:03.853Z,997.2
2019-02-02T11:38:03.730Z,997.3
2019-02-02T11:39:03.264Z,997.3
2019-02-02T11:40:03.763Z,997.3
2019-02-02T11:41:03.285Z,997.3
2019-02-02T11:42:03.479Z,997.4
2019-02-02T11:43:03.684Z,997.4
2019-02-02T11:44:02.986Z,997.5
2019-02-02T11:45:03.444Z,997.5
2019-02-02T11:46:03.542Z,997.5
2019-02-02T11:47:03.085Z,997.6
2019-02-02T11:48:03.760Z,997.6
2019-02-02T11:49:03.722Z,997.6
2019-02-02T11:50:03.799Z,997.6
2019-02-02T11:51:03.467Z,997.6
2019-02-02T11:52:03.263Z,997.5
2019-02-02T11:53:03.716Z,997.4
2019-02-02T11:54:03.094Z,997.4
2019-02-02T11:55:03.158Z,997.4
2019-02-02T11:56:03.195Z,997.4
2019-02-02T11:57:03.562Z,997.4
2019-02-02T11:58:03.889Z,997.4
2019-02-02T11:59:03.427Z,997.4
2019-02-02T12:00:03.877Z,997.4
2019-02-02T12:01:03.113Z,997.4
2019-02-02T12:02:15.286Z,997.4
2019-02-02T12:03:05.075Z,997.4
2019-02-02T12:04:03.385Z,997.3
2019-02-02T12:05:03.615Z,997.4
2019-02-02T12:06:03.457Z,997.5
2019-02-02T12:07:03.036Z,997.5
2019-02-02T12:08:03.404Z,997.5
2019-02-02T12:09:03.834Z,997.5
2019-02-02T12:10:03.234Z,997.6
2019-02-02T12:11:02.920Z,997.6
2019-02-02T12:12:02.906Z,997.5
2019-02-02T12:13:03.747Z,997.5
2019-02-02T12:14:03.209Z,997.6
2019-02-02T12:15:03.401Z,997.7
2019-02-02T12:16:03.104Z,997.7
2019-02-02T12:17:03.371Z,997.8
2019-02-02T12:18:03.898Z,997.7
2019-02-02T12:19:03.555Z,997.7
2019-02-02T12:20:03.821Z,997.7
2019-02-02T12:21:03.027Z,997.7
2019-02-02T12:22:03.760Z,997.7
2019-02-02T12:23:03.991Z,997.7
2019-02-02T12:24:16.682Z,997.7
2019-02-02T12:25:03.168Z,997.7
2019-02-02T12:26:03.799Z,997.8
2019-02-02T12:27:03.404Z,997.9
2019-02-02T12:28:03.869Z,997.9
2019-02-02T12:29:03.119Z,998
2019-02-02T12:30:03.730Z,998
2019-02-02T12:31:03.297Z,997.9
2019-02-02T12:32:03.161Z,998
2019-02-02T12:33:04.157Z,998.1
2019-02-02T12:34:03.221Z,998
2019-02-02T12:35:05.209Z,998.1
2019-02-02T12:36:03.350Z,998
2019-02-02T12:37:03.210Z,998
2019-02-02T12:38:03.370Z,998
2019-02-02T12:39:03.495Z,998
2019-02-02T12:40:03.459Z,998.1
2019-02-02T12:41:02.914Z,998
2019-02-02T12:42:03.384Z,998
2019-02-02T12:43:03.223Z,998
2019-02-02T12:44:03.276Z,998.1
2019-02-02T12:45:03.157Z,998.1
2019-02-02T12:46:02.938Z,998.1
2019-02-02T12:47:03.593Z,998
2019-02-02T12:48:03.614Z,998
2019-02-02T12:49:03.274Z,997.8
2019-02-02T12:50:03.881Z,997.8
2019-02-02T12:51:03.621Z,997.8
2019-02-02T12:52:03.260Z,997.8
2019-02-02T12:53:03.255Z,997.8
2019-02-02T12:54:03.255Z,997.9
2019-02-02T12:55:03.909Z,997.9
2019-02-02T12:56:03.440Z,997.8